Effort, PA

11:54 AM EDT on September 01, 2015 (GMT -0400)
New York Blvd. | | Change Station
CLOSE
Current Station
Personal Weather Station
Location: Effort, PA
Elevation: 1086 ft
Nearby Weather Stations

Elev 1086 ft 40.96 °N, 75.47 °W | Updated 6 seconds ago

Partly Cloudy
Partly Cloudy
86.2 °F
Feels Like 88 °F
N
0.0
Wind Variable Wind from WSW
Gusts 0.0 mph

Today
High -- | Low -- °F
--% Chance of Precip.
Yesterday
High -- | Low -- °F
Precip. -- in
6:28 AM 7:34 PM
Waning Gibbous, 88% visible
Pressure 30.12 in
Visibility 10.0 miles
Clouds Mostly Cloudy 2300 ft
Heat Index 88 °F
Dew Point 66 °F
Humidity 51%
Rainfall 0.00 in
Snow Depth Not available.
UV 4 out of 12
Pollen 9.70 out of 12
Air Quality Not available.
Flu Activity Not available.
METAR KMPO 011453Z AUTO 02005KT 10SM BKN023 24/17 A3015 RMK AO2 SLP198 T02440167 51007
Pressure 30.12 in
Visibility 10.0 miles
Clouds Mostly Cloudy 2300 ft
Heat Index 88 °F
Dew Point 66 °F
Humidity 51%
Rainfall 0.00 in
Snow Depth Not available.
UV 4 out of 12
Pollen 9.70 out of 12
Air Quality Not available.
Flu Activity Not available.
METAR KMPO 011453Z AUTO 02005KT 10SM BKN023 24/17 A3015 RMK AO2 SLP198 T02440167 51007

10-Day Weather Forecast

×

Almanac

Astronomy

Sep. 01, 2015 Rise Set
Actual Time
Civil Twilight
Nautical Twilight
Astronomical Twilight
Moon
Length of Visible Light
Length of Day
Tomorrow will be .
, % of the Moon is Illuminated

Today's Extremes

State Highs State Lows

Community

WunderPhotos

Upload Photos

1,851,538 photos uploaded!

WunderBlogs® & News

Nearby

Air Quality

  Air Quality AQ Index Pollutant
Not available.

Snow Depth

Station Depth Elevation

Earthquake Activity

City Distance Mag. Time & Date
Minimum magnitude displayed is 2.5.

Coastal Water Temperatures

Place Temperature

Stations

Nearby Weather Stations

Station Location Temp. Windchill Dew Point Humidity Wind Precip. Elev Updated Type